createdAt,value
2022-12-24T00:01:03.169Z,87.48
2022-12-24T00:03:29.802Z,85.16
2022-12-24T00:05:56.378Z,88.94
2022-12-24T00:08:23.231Z,86.00
2022-12-24T00:10:54.024Z,86.96
2022-12-24T00:13:21.627Z,87.00
2022-12-24T00:15:48.736Z,84.82
2022-12-24T00:18:15.779Z,83.06
2022-12-24T00:20:42.445Z,81.30
2022-12-24T00:23:09.058Z,83.63
2022-12-24T00:25:35.486Z,86.19
2022-12-24T00:28:01.900Z,84.75
2022-12-24T00:30:28.368Z,83.22
2022-12-24T00:32:54.883Z,86.06
2022-12-24T00:35:21.894Z,84.88
2022-12-24T00:37:49.059Z,83.81
2022-12-24T00:40:16.363Z,87.84
2022-12-24T00:42:42.866Z,88.18
2022-12-24T00:45:10.383Z,88.09
2022-12-24T00:47:37.180Z,90.84
2022-12-24T00:50:04.612Z,90.31
2022-12-24T00:52:31.130Z,90.57
2022-12-24T00:54:57.564Z,90.72
2022-12-24T00:57:23.966Z,86.23
2022-12-24T00:59:50.366Z,84.83
2022-12-24T01:02:17.142Z,88.05
2022-12-24T01:05:02.132Z,89.11
2022-12-24T01:07:28.533Z,90.07
2022-12-24T01:09:54.925Z,90.31
2022-12-24T01:12:21.504Z,91.51
2022-12-24T01:14:47.986Z,90.42
2022-12-24T01:17:14.512Z,91.00
2022-12-24T01:19:40.900Z,87.10
2022-12-24T01:22:07.296Z,86.02
2022-12-24T01:24:33.733Z,84.19
2022-12-24T01:27:00.147Z,83.74
2022-12-24T01:29:26.625Z,81.99
2022-12-24T01:31:53.115Z,84.38
2022-12-24T01:34:19.692Z,82.47
2022-12-24T01:36:46.223Z,81.60
2022-12-24T01:39:12.621Z,80.51
2022-12-24T01:41:57.464Z,80.69
2022-12-24T01:44:33.143Z,81.49
2022-12-24T01:47:11.569Z,81.06
2022-12-24T01:49:42.017Z,82.23
2022-12-24T01:52:19.138Z,83.85
2022-12-24T01:54:56.439Z,83.40
2022-12-24T01:57:27.732Z,81.62
2022-12-24T01:59:58.562Z,83.23
2022-12-24T02:02:27.197Z,83.66
2022-12-24T02:05:01.939Z,82.40
2022-12-24T02:07:28.594Z,82.46
2022-12-24T02:09:57.915Z,81.43
2022-12-24T02:12:27.056Z,81.53
2022-12-24T02:14:54.579Z,81.13
2022-12-24T02:17:28.225Z,81.22
2022-12-24T02:20:20.031Z,81.23
2022-12-24T02:23:24.124Z,79.81
2022-12-24T02:26:28.334Z,79.93
2022-12-24T02:29:19.733Z,80.17
2022-12-24T02:32:15.088Z,80.46
2022-12-24T02:35:13.272Z,81.30
2022-12-24T02:37:47.513Z,81.89
2022-12-24T02:40:19.766Z,81.75
2022-12-24T02:42:51.722Z,81.33
2022-12-24T02:45:22.865Z,80.21
2022-12-24T02:47:51.480Z,80.01
2022-12-24T02:50:18.801Z,79.81
2022-12-24T02:52:46.986Z,80.05
2022-12-24T02:55:23.257Z,79.79
2022-12-24T02:58:27.321Z,79.68
2022-12-24T03:01:26.312Z,80.04
2022-12-24T03:04:11.365Z,80.31
2022-12-24T03:06:37.752Z,81.35
2022-12-24T03:09:19.506Z,80.28
2022-12-24T03:11:53.599Z,80.69
2022-12-24T03:14:21.754Z,80.48
2022-12-24T03:16:49.350Z,79.94
2022-12-24T03:19:16.400Z,80.38
2022-12-24T03:21:43.577Z,80.58
2022-12-24T03:24:10.960Z,80.43
2022-12-24T03:26:39.145Z,81.16
2022-12-24T03:29:08.124Z,81.02
2022-12-24T03:32:01.954Z,80.46
2022-12-24T03:34:28.492Z,80.69
2022-12-24T03:36:55.649Z,81.54
2022-12-24T03:39:22.934Z,81.83
2022-12-24T03:41:49.494Z,81.92
2022-12-24T03:44:15.945Z,82.83
2022-12-24T03:46:42.428Z,86.91
2022-12-24T03:49:09.100Z,88.75
2022-12-24T03:51:35.697Z,87.91
2022-12-24T03:54:02.568Z,89.61
2022-12-24T03:56:29.141Z,89.74
2022-12-24T03:58:55.567Z,89.15
2022-12-24T04:01:22.204Z,87.96
2022-12-24T04:03:48.805Z,90.67
2022-12-24T04:06:17.888Z,90.56
2022-12-24T04:08:44.654Z,90.18
2022-12-24T04:11:13.709Z,90.23
2022-12-24T04:13:40.182Z,89.63
2022-12-24T04:16:11.746Z,90.24
2022-12-24T04:18:38.990Z,88.45
2022-12-24T04:21:06.685Z,90.10
2022-12-24T04:23:34.600Z,88.64
2022-12-24T04:26:05.445Z,86.96
2022-12-24T04:28:33.688Z,87.39
2022-12-24T04:31:01.357Z,87.02
2022-12-24T04:33:28.524Z,85.03
2022-12-24T04:35:57.650Z,86.59
2022-12-24T04:38:24.201Z,85.19
2022-12-24T04:41:01.903Z,85.19
2022-12-24T04:43:28.933Z,86.15
2022-12-24T04:45:56.113Z,85.89
2022-12-24T04:48:23.033Z,85.19
2022-12-24T04:50:49.430Z,85.46
2022-12-24T04:53:15.967Z,85.38
2022-12-24T04:55:45.932Z,86.79
2022-12-24T04:58:13.144Z,85.43
2022-12-24T05:00:40.490Z,84.95
2022-12-24T05:03:07.157Z,85.76
2022-12-24T05:05:33.656Z,84.66
2022-12-24T05:08:00.094Z,85.18
2022-12-24T05:10:26.527Z,84.57
2022-12-24T05:12:53.278Z,85.36
2022-12-24T05:15:19.773Z,83.60
2022-12-24T05:17:46.184Z,81.16
2022-12-24T05:20:12.619Z,83.82
2022-12-24T05:22:57.736Z,83.39
2022-12-24T05:25:42.532Z,83.00
2022-12-24T05:28:08.972Z,81.11
2022-12-24T05:30:35.471Z,83.22
2022-12-24T05:33:01.884Z,83.54
2022-12-24T05:35:28.346Z,82.17
2022-12-24T05:37:58.056Z,80.03
2022-12-24T05:40:24.662Z,81.01
2022-12-24T05:42:51.330Z,82.60
2022-12-24T05:45:17.758Z,81.96
2022-12-24T05:47:44.216Z,82.30
2022-12-24T05:50:12.362Z,82.83
2022-12-24T05:52:38.778Z,80.57
2022-12-24T05:55:05.683Z,82.00
2022-12-24T05:57:32.163Z,79.74
2022-12-24T05:59:58.629Z,81.13
2022-12-24T06:02:25.185Z,81.63
2022-12-24T06:04:51.653Z,81.05
2022-12-24T06:07:18.094Z,80.37
2022-12-24T06:09:44.571Z,80.17
2022-12-24T06:12:10.989Z,79.97
2022-12-24T06:14:37.516Z,80.05
2022-12-24T06:17:03.929Z,81.94
2022-12-24T06:19:30.382Z,79.26
2022-12-24T06:21:56.798Z,79.10
2022-12-24T06:24:23.519Z,79.06
2022-12-24T06:26:49.977Z,81.40
2022-12-24T06:29:16.409Z,81.67
2022-12-24T06:31:42.898Z,84.40
2022-12-24T06:34:09.381Z,82.66
2022-12-24T06:36:35.797Z,83.77
2022-12-24T06:39:02.165Z,82.26
2022-12-24T06:41:28.816Z,83.89
2022-12-24T06:43:55.277Z,83.37
2022-12-24T06:46:22.151Z,81.83
2022-12-24T06:48:48.992Z,83.53
2022-12-24T06:51:17.166Z,81.34
2022-12-24T06:53:43.569Z,81.88
2022-12-24T06:56:12.941Z,81.80
2022-12-24T06:58:40.749Z,81.14
2022-12-24T07:01:09.899Z,80.42
2022-12-24T07:03:36.586Z,81.27
2022-12-24T07:06:03.611Z,81.33
2022-12-24T07:08:33.529Z,80.63
2022-12-24T07:11:00.376Z,78.68
2022-12-24T07:13:26.867Z,79.98
2022-12-24T07:16:01.802Z,77.82
2022-12-24T07:18:29.043Z,78.53
2022-12-24T07:20:55.458Z,80.26
2022-12-24T07:23:21.937Z,81.62
2022-12-24T07:25:48.447Z,80.37
2022-12-24T07:28:14.851Z,78.76
2022-12-24T07:30:41.418Z,79.58
2022-12-24T07:33:08.349Z,78.55
2022-12-24T07:35:34.932Z,78.73
2022-12-24T07:38:02.365Z,79.35
2022-12-24T07:40:28.872Z,78.99
2022-12-24T07:42:55.293Z,77.98
2022-12-24T07:45:21.843Z,79.66
2022-12-24T07:47:48.348Z,78.02
2022-12-24T07:50:14.796Z,76.76
2022-12-24T07:52:41.246Z,78.85
2022-12-24T07:55:07.930Z,78.91
2022-12-24T07:57:34.427Z,77.67
2022-12-24T08:00:00.850Z,78.08
2022-12-24T08:02:27.412Z,75.81
2022-12-24T08:04:54.079Z,76.17
2022-12-24T08:07:20.497Z,76.79
2022-12-24T08:09:46.966Z,76.13
2022-12-24T08:12:13.378Z,74.71
2022-12-24T08:14:39.840Z,76.30
2022-12-24T08:17:06.325Z,77.12
2022-12-24T08:19:32.768Z,75.65
2022-12-24T08:21:59.189Z,75.35
2022-12-24T08:24:25.759Z,76.19
2022-12-24T08:26:52.222Z,74.09
2022-12-24T08:29:18.772Z,73.85
2022-12-24T08:31:45.219Z,77.03
2022-12-24T08:34:11.937Z,76.39
2022-12-24T08:36:38.428Z,76.09
2022-12-24T08:39:05.858Z,74.25
2022-12-24T08:41:32.849Z,73.68
2022-12-24T08:43:59.356Z,70.62
2022-12-24T08:46:26.108Z,70.78
2022-12-24T08:48:52.675Z,72.72
2022-12-24T08:51:19.239Z,72.67
2022-12-24T08:53:46.739Z,70.49
2022-12-24T08:56:13.311Z,68.83
2022-12-24T08:58:40.171Z,66.85
2022-12-24T09:01:18.337Z,69.79
2022-12-24T09:03:45.824Z,71.83
2022-12-24T09:06:13.248Z,73.95
2022-12-24T09:08:39.834Z,70.79
2022-12-24T09:11:08.131Z,71.76
2022-12-24T09:13:35.482Z,70.46
2022-12-24T09:16:02.173Z,71.89
2022-12-24T09:18:29.420Z,75.13
2022-12-24T09:21:00.235Z,74.33
2022-12-24T09:23:26.694Z,75.89
2022-12-24T09:25:53.123Z,77.18
2022-12-24T09:28:19.542Z,75.78
2022-12-24T09:30:45.978Z,78.17
2022-12-24T09:33:12.423Z,77.71
2022-12-24T09:35:38.907Z,80.48
2022-12-24T09:38:05.333Z,81.52
2022-12-24T09:40:39.955Z,79.76
2022-12-24T09:43:28.096Z,80.45
2022-12-24T09:45:57.325Z,80.93
2022-12-24T09:48:28.439Z,81.36
2022-12-24T09:50:56.981Z,81.37
2022-12-24T09:53:48.136Z,80.74
2022-12-24T09:56:19.233Z,77.25
2022-12-24T09:58:50.805Z,78.78
2022-12-24T10:01:19.089Z,77.98
2022-12-24T10:03:46.610Z,76.61
2022-12-24T10:06:29.039Z,75.53
2022-12-24T10:09:10.343Z,77.17
2022-12-24T10:11:53.231Z,75.43
2022-12-24T10:14:34.936Z,74.55
2022-12-24T10:17:13.848Z,76.77
2022-12-24T10:19:57.578Z,74.22
2022-12-24T10:22:48.502Z,75.72
2022-12-24T10:25:27.044Z,75.89
2022-12-24T10:27:58.007Z,77.85
2022-12-24T10:30:24.501Z,77.64
2022-12-24T10:32:54.045Z,76.63
2022-12-24T10:35:25.695Z,75.95
2022-12-24T10:37:52.805Z,77.41
2022-12-24T10:40:31.659Z,76.57
2022-12-24T10:42:58.337Z,78.56
2022-12-24T10:45:30.253Z,77.65
2022-12-24T10:48:01.562Z,77.34
2022-12-24T10:50:50.777Z,74.61
2022-12-24T10:53:41.991Z,74.44
2022-12-24T10:56:11.695Z,74.02
2022-12-24T10:58:44.234Z,76.85
2022-12-24T11:01:10.956Z,74.36
2022-12-24T11:03:38.203Z,76.92
2022-12-24T11:06:06.515Z,74.32
2022-12-24T11:08:34.253Z,77.55
2022-12-24T11:11:21.130Z,77.99
2022-12-24T11:13:50.606Z,75.08
2022-12-24T11:16:28.628Z,76.32
2022-12-24T11:19:01.130Z,72.82
2022-12-24T11:21:40.855Z,72.35
2022-12-24T11:24:13.379Z,76.80
2022-12-24T11:26:44.362Z,76.04
2022-12-24T11:29:16.619Z,75.64
2022-12-24T11:31:44.616Z,72.80
2022-12-24T11:34:23.416Z,74.36
2022-12-24T11:36:51.672Z,76.09
2022-12-24T11:39:22.467Z,75.22
2022-12-24T11:41:53.256Z,75.00
2022-12-24T11:44:28.324Z,77.09
2022-12-24T11:46:59.261Z,76.07
2022-12-24T11:49:30.993Z,77.20
2022-12-24T11:52:09.613Z,76.92
2022-12-24T11:54:45.320Z,74.47
2022-12-24T11:57:16.488Z,77.47
2022-12-24T11:59:46.192Z,75.24
2022-12-24T12:02:23.657Z,79.15
2022-12-24T12:04:56.641Z,78.54
2022-12-24T12:07:30.973Z,78.12
2022-12-24T12:10:05.404Z,79.42
2022-12-24T12:12:37.443Z,78.69
2022-12-24T12:15:11.938Z,77.67
2022-12-24T12:17:50.237Z,78.11
2022-12-24T12:20:26.080Z,79.99
2022-12-24T12:23:01.491Z,78.04
2022-12-24T12:25:34.004Z,78.64
2022-12-24T12:28:03.487Z,76.55
2022-12-24T12:30:31.883Z,77.87
2022-12-24T12:33:35.687Z,79.05
2022-12-24T12:36:03.612Z,78.19
2022-12-24T12:38:30.641Z,78.49
2022-12-24T12:41:25.346Z,80.91
2022-12-24T12:44:13.586Z,80.30
2022-12-24T12:46:52.941Z,80.84
2022-12-24T12:49:50.557Z,82.04
2022-12-24T12:52:39.810Z,81.67
2022-12-24T12:55:06.199Z,80.91
2022-12-24T12:57:36.755Z,82.73
2022-12-24T13:00:09.707Z,81.27
2022-12-24T13:03:00.145Z,81.92
2022-12-24T13:05:48.437Z,81.50
2022-12-24T13:08:33.092Z,81.47
2022-12-24T13:11:36.734Z,82.62
2022-12-24T13:14:21.310Z,83.18
2022-12-24T13:16:50.711Z,80.67
2022-12-24T13:19:38.907Z,82.37
2022-12-24T13:22:13.741Z,80.86
2022-12-24T13:24:40.519Z,80.11
2022-12-24T13:27:18.713Z,81.33
2022-12-24T13:29:53.336Z,82.89
2022-12-24T13:32:19.962Z,79.30
2022-12-24T13:34:53.872Z,81.31
2022-12-24T13:37:29.374Z,79.92
2022-12-24T13:40:08.263Z,82.02
2022-12-24T13:42:50.018Z,81.25
2022-12-24T13:45:28.766Z,78.37
2022-12-24T13:48:02.843Z,77.77
2022-12-24T13:50:39.831Z,79.66
2022-12-24T13:53:21.340Z,76.83
2022-12-24T13:55:55.348Z,78.86
2022-12-24T13:58:24.231Z,78.09
2022-12-24T14:01:03.149Z,76.98
2022-12-24T14:03:32.346Z,76.11
2022-12-24T14:06:07.914Z,76.63
2022-12-24T14:08:45.276Z,75.50
2022-12-24T14:11:16.332Z,75.60
2022-12-24T14:13:42.703Z,75.80
2022-12-24T14:16:15.021Z,75.37
2022-12-24T14:18:44.592Z,75.22
2022-12-24T14:21:28.326Z,75.52
2022-12-24T14:23:57.547Z,75.03
2022-12-24T14:26:28.833Z,76.78
2022-12-24T14:28:59.869Z,75.47
2022-12-24T14:31:26.677Z,75.59
2022-12-24T14:34:06.140Z,74.61
2022-12-24T14:36:33.206Z,75.07
2022-12-24T14:39:00.244Z,75.13
2022-12-24T14:41:46.308Z,74.88
2022-12-24T14:44:35.723Z,75.03
2022-12-24T14:47:30.167Z,80.67
2022-12-24T14:50:24.483Z,78.75
2022-12-24T14:53:09.420Z,78.67
2022-12-24T14:55:45.140Z,77.57
2022-12-24T14:58:22.967Z,80.52
2022-12-24T15:00:50.660Z,82.43
2022-12-24T15:03:19.899Z,79.92
2022-12-24T15:05:51.603Z,81.07
2022-12-24T15:08:22.475Z,79.40
2022-12-24T15:10:54.558Z,80.01
2022-12-24T15:13:20.924Z,81.14
2022-12-24T15:15:52.596Z,82.02
2022-12-24T15:18:25.325Z,79.41
2022-12-24T15:20:57.278Z,82.51
2022-12-24T15:23:35.047Z,80.80
2022-12-24T15:26:20.293Z,80.66
2022-12-24T15:28:47.016Z,81.08
2022-12-24T15:31:16.120Z,79.89
2022-12-24T15:33:46.504Z,80.19
2022-12-24T15:36:15.307Z,81.54
2022-12-24T15:38:51.687Z,80.65
2022-12-24T15:41:27.800Z,78.73
2022-12-24T15:43:59.356Z,81.31
2022-12-24T15:46:27.954Z,79.38
2022-12-24T15:48:56.950Z,79.00
2022-12-24T15:51:30.478Z,80.59
2022-12-24T15:54:04.901Z,80.00
2022-12-24T15:56:44.026Z,79.59
2022-12-24T15:59:13.128Z,79.25
2022-12-24T16:01:39.792Z,78.53
2022-12-24T16:04:22.010Z,78.44
2022-12-24T16:07:02.338Z,78.13
2022-12-24T16:09:44.096Z,77.63
2022-12-24T16:12:36.956Z,78.75
2022-12-24T16:15:03.665Z,78.42
2022-12-24T16:17:34.241Z,77.45
2022-12-24T16:20:05.880Z,77.47
2022-12-24T16:22:33.002Z,77.72
2022-12-24T16:25:00.470Z,78.12
2022-12-24T16:27:27.488Z,77.40
2022-12-24T16:29:54.764Z,77.04
2022-12-24T16:32:30.214Z,78.58
2022-12-24T16:34:56.927Z,77.81
2022-12-24T16:37:23.370Z,78.76
2022-12-24T16:39:50.169Z,79.11
2022-12-24T16:42:35.560Z,77.98
2022-12-24T16:45:02.064Z,77.28
2022-12-24T16:47:35.750Z,77.86
2022-12-24T16:50:08.294Z,77.61
2022-12-24T16:52:34.797Z,77.50
2022-12-24T16:55:01.902Z,76.92
2022-12-24T16:57:28.867Z,77.52
2022-12-24T16:59:55.669Z,77.07
2022-12-24T17:02:23.887Z,78.28
2022-12-24T17:04:50.874Z,77.38
2022-12-24T17:07:19.165Z,77.74
2022-12-24T17:09:45.710Z,77.98
2022-12-24T17:12:13.648Z,77.38
2022-12-24T17:14:40.732Z,78.02
2022-12-24T17:17:07.200Z,77.07
2022-12-24T17:19:33.697Z,77.06
2022-12-24T17:22:00.190Z,77.78
2022-12-24T17:24:26.581Z,77.42
2022-12-24T17:26:53.030Z,76.73
2022-12-24T17:29:19.478Z,76.58
2022-12-24T17:31:46.017Z,77.36
2022-12-24T17:34:12.564Z,77.30
2022-12-24T17:36:39.212Z,76.92
2022-12-24T17:39:05.674Z,77.79
2022-12-24T17:41:32.097Z,77.48
2022-12-24T17:43:58.605Z,76.89
2022-12-24T17:46:25.255Z,77.34
2022-12-24T17:48:52.233Z,76.35
2022-12-24T17:51:21.410Z,76.84
2022-12-24T17:53:49.001Z,76.69
2022-12-24T17:56:16.122Z,76.85
2022-12-24T17:58:44.828Z,76.86
2022-12-24T18:01:17.959Z,75.99
2022-12-24T18:03:45.354Z,76.33
2022-12-24T18:06:12.127Z,76.74
2022-12-24T18:08:40.118Z,76.85
2022-12-24T18:11:20.395Z,76.42
2022-12-24T18:13:47.876Z,76.36
2022-12-24T18:16:33.815Z,76.36
2022-12-24T18:19:01.412Z,75.74
2022-12-24T18:21:30.974Z,76.46
2022-12-24T18:23:57.617Z,76.55
2022-12-24T18:26:27.760Z,76.08
2022-12-24T18:28:55.550Z,75.98
2022-12-24T18:31:23.037Z,76.19
2022-12-24T18:33:50.590Z,76.94
2022-12-24T18:36:18.261Z,76.46
2022-12-24T18:38:45.236Z,76.50
2022-12-24T18:41:14.779Z,76.25
2022-12-24T18:43:41.575Z,76.14
2022-12-24T18:46:09.160Z,76.75
2022-12-24T18:48:36.222Z,76.66
2022-12-24T18:51:03.688Z,76.93
2022-12-24T18:53:30.183Z,76.69
2022-12-24T18:56:02.642Z,76.98
2022-12-24T18:58:29.072Z,77.71
2022-12-24T19:00:55.576Z,77.10
2022-12-24T19:03:22.167Z,77.20
2022-12-24T19:05:48.648Z,77.13
2022-12-24T19:08:46.935Z,78.33
2022-12-24T19:11:02.214Z,78.15
2022-12-24T19:13:28.764Z,77.07
2022-12-24T19:15:55.231Z,77.12
2022-12-24T19:18:21.692Z,75.70
2022-12-24T19:20:48.164Z,77.43
2022-12-24T19:23:14.596Z,76.98
2022-12-24T19:25:41.215Z,76.51
2022-12-24T19:28:10.721Z,76.54
2022-12-24T19:30:39.737Z,76.61
2022-12-24T19:33:06.474Z,76.70
2022-12-24T19:35:33.345Z,76.89
2022-12-24T19:37:59.969Z,77.21
2022-12-24T19:40:27.345Z,76.88
2022-12-24T19:42:54.046Z,76.65
2022-12-24T19:45:22.909Z,75.90
2022-12-24T19:47:50.963Z,76.28
2022-12-24T19:50:17.927Z,76.11
2022-12-24T19:52:44.526Z,75.93
2022-12-24T19:55:11.668Z,76.75
2022-12-24T19:57:39.645Z,76.28
2022-12-24T20:00:07.498Z,76.11
2022-12-24T20:02:34.567Z,75.84
2022-12-24T20:07:36.738Z,76.45
2022-12-24T20:10:03.521Z,76.86
2022-12-24T20:12:30.030Z,76.00
2022-12-24T20:14:57.438Z,75.99
2022-12-24T20:17:23.993Z,75.78
2022-12-24T20:19:50.838Z,75.81
2022-12-24T20:22:17.255Z,76.27
2022-12-24T20:24:43.788Z,76.61
2022-12-24T20:27:10.354Z,76.28
2022-12-24T20:29:36.814Z,76.23
2022-12-24T20:32:03.596Z,76.45
2022-12-24T20:34:30.334Z,75.79
2022-12-24T20:36:56.805Z,75.87
2022-12-24T20:39:23.216Z,76.35
2022-12-24T20:41:49.632Z,76.09
2022-12-24T20:44:16.034Z,76.41
2022-12-24T20:46:42.625Z,76.21
2022-12-24T20:49:11.633Z,76.33
2022-12-24T20:51:38.065Z,76.58
2022-12-24T20:54:04.537Z,75.92
2022-12-24T20:56:31.586Z,75.52
2022-12-24T20:58:59.613Z,76.11
2022-12-24T21:01:26.950Z,75.98
2022-12-24T21:03:55.183Z,75.61
2022-12-24T21:06:22.814Z,75.81
2022-12-24T21:08:50.025Z,75.78
2022-12-24T21:11:36.885Z,75.30
2022-12-24T21:14:03.341Z,75.93
2022-12-24T21:16:35.746Z,75.88
2022-12-24T21:19:02.900Z,75.58
2022-12-24T21:21:29.390Z,75.70
2022-12-24T21:23:55.917Z,75.48
2022-12-24T21:26:22.695Z,75.57
2022-12-24T21:28:50.320Z,75.76
2022-12-24T21:31:17.000Z,75.82
2022-12-24T21:33:43.496Z,75.75
2022-12-24T21:36:12.248Z,75.18
2022-12-24T21:38:38.877Z,75.47
2022-12-24T21:41:11.196Z,75.51
2022-12-24T21:43:38.113Z,75.31
2022-12-24T21:46:09.452Z,76.27
2022-12-24T21:48:55.773Z,76.04
2022-12-24T21:51:23.462Z,76.08
2022-12-24T21:54:08.594Z,75.54
2022-12-24T21:56:55.351Z,75.52
2022-12-24T21:59:26.386Z,75.50
2022-12-24T22:01:53.659Z,75.67
2022-12-24T22:04:20.189Z,75.35
2022-12-24T22:07:05.183Z,74.73
2022-12-24T22:09:50.102Z,74.92
2022-12-24T22:12:16.584Z,74.73
2022-12-24T22:14:42.991Z,75.04
2022-12-24T22:17:09.602Z,74.80
2022-12-24T22:19:36.133Z,74.94
2022-12-24T22:22:02.865Z,75.54
2022-12-24T22:24:32.042Z,75.89
2022-12-24T22:26:58.587Z,75.38
2022-12-24T22:29:25.154Z,75.71
2022-12-24T22:31:51.630Z,75.54
2022-12-24T22:34:18.149Z,75.39
2022-12-24T22:36:44.616Z,75.42
2022-12-24T22:39:11.013Z,75.60
2022-12-24T22:41:37.493Z,75.58
2022-12-24T22:44:04.060Z,75.55
2022-12-24T22:46:30.662Z,75.34
2022-12-24T22:48:57.170Z,75.12
2022-12-24T22:51:23.629Z,75.31
2022-12-24T22:53:50.323Z,75.16
2022-12-24T22:56:22.450Z,74.90
2022-12-24T22:58:56.352Z,75.57
2022-12-24T23:01:37.357Z,75.07
2022-12-24T23:04:06.034Z,75.52
2022-12-24T23:06:34.125Z,75.18
2022-12-24T23:09:00.979Z,75.63
2022-12-24T23:11:27.700Z,75.82
2022-12-24T23:14:12.560Z,75.41
2022-12-24T23:16:39.035Z,75.62
2022-12-24T23:19:06.066Z,75.39
2022-12-24T23:21:33.581Z,75.66
2022-12-24T23:24:01.114Z,76.19
2022-12-24T23:26:28.546Z,76.28
2022-12-24T23:28:55.918Z,76.50
2022-12-24T23:31:22.989Z,75.72
2022-12-24T23:33:50.033Z,75.76
2022-12-24T23:36:16.898Z,75.50
2022-12-24T23:38:43.708Z,76.31
2022-12-24T23:41:11.532Z,76.33
2022-12-24T23:43:38.471Z,76.24
2022-12-24T23:46:05.563Z,75.84
2022-12-24T23:48:32.112Z,74.83
2022-12-24T23:51:11.808Z,75.47
2022-12-24T23:53:38.280Z,75.11
2022-12-24T23:56:05.724Z,75.32
2022-12-24T23:58:32.223Z,75.17
